Time;durP1;ratioP1;P1;durP2;ratioP2;P2;SDS_P1;SDS_P2;PMS_P1;PMS_P2;Temp;Humidity;BMP_temperature;BMP_pressure;BME280_temperature;BME280_humidity;BME280_pressure;Samples;Min_cycle;Max_cycle;Signal;HPM_P1;HPM_P2
2022/01/17 00:01:37;;;;;;;;;;;;;;;4.61;58.48;100488.28;4400314;32;35185;-80
2022/01/17 00:04:05;;;;;;;;;;;;;;;4.48;59.01;100492.59;4400139;32;36195;-79
2022/01/17 00:06:33;;;;;;;;;;;;;;;4.46;59.16;100476.03;4399923;32;32719;-80
2022/01/17 00:09:00;;;;;;;;;;;;;;;4.73;58.44;100477.00;4387014;32;34150;-80
2022/01/17 00:11:28;;;;;;;;;;;;;;;4.41;59.55;100466.66;4398939;32;35408;-80
2022/01/17 00:13:56;;;;;;;;;;;;;;;4.36;59.80;100466.09;4413906;32;34212;-80
2022/01/17 00:16:40;;;;;;;;;;;;;;;4.29;60.07;100477.91;4400122;32;33171;-81
2022/01/17 00:21:50;;;;;;;;;;;;;;;4.03;60.94;100475.91;4388418;32;34449;-80
2022/01/17 00:24:21;;;;;;;;;;;;;;;4.14;60.66;100481.44;4399901;32;33729;-80
2022/01/17 00:26:50;;;;;;;;;;;;;;;4.12;60.81;100471.00;4387114;32;31521;-80
2022/01/17 00:29:17;;;;;;;;;;;;;;;4.05;61.09;100481.97;4399298;32;33274;-81
2022/01/17 00:31:45;;;;;;;;;;;;;;;4.05;61.16;100477.53;4413408;32;35152;-80
2022/01/17 00:34:12;;;;;;;;;;;;;;;4.35;60.28;100474.94;4413842;32;34684;-80
2022/01/17 00:36:40;;;;;;;;;;;;;;;4.45;59.97;100463.75;4387333;32;33646;-80
2022/01/17 00:39:08;;;;;;;;;;;;;;;4.46;59.84;100470.75;4387114;32;33615;-81
2022/01/17 00:41:35;;;;;;;;;;;;;;;4.30;60.11;100490.16;4413713;32;35933;-80
2022/01/17 00:44:03;;;;;;;;;;;;;;;4.28;60.43;100485.00;4413291;32;34331;-80
2022/01/17 00:46:31;;;;;;;;;;;;;;;4.50;59.78;100479.28;4374416;32;32136;-80
2022/01/17 00:48:59;;;;;;;;;;;;;;;4.53;59.65;100487.03;4400082;32;34143;-80
2022/01/17 00:51:26;;;;;;;;;;;;;;;4.69;59.11;100478.13;4399850;32;35586;-80
2022/01/17 00:53:54;;;;;;;;;;;;;;;4.91;58.30;100477.72;4400350;32;32949;-81
2022/01/17 00:56:22;;;;;;;;;;;;;;;4.88;58.20;100486.62;4400481;32;33068;-80
2022/01/17 00:58:50;;;;;;;;;;;;;;;4.96;58.03;100479.12;4386944;32;32552;-80
2022/01/17 01:01:18;;;;;;;;;;;;;;;5.03;57.74;100487.50;4400108;32;35374;-80
2022/01/17 01:03:46;;;;;;;;;;;;;;;4.99;57.87;100467.56;4387464;32;35379;-81
2022/01/17 01:06:13;;;;;;;;;;;;;;;5.01;57.60;100470.94;4399385;32;33641;-80
2022/01/17 01:08:41;;;;;;;;;;;;;;;5.28;56.89;100483.25;4399782;32;33879;-80
2022/01/17 01:11:08;;;;;;;;;;;;;;;4.82;58.08;100480.91;4398847;32;35835;-81
2022/01/17 01:13:37;;;;;;;;;;;;;;;4.94;57.90;100474.87;4386297;32;33847;-81
2022/01/17 01:29:27;;;;;;;;;;;;;;;5.09;57.13;100444.94;4401476;32;33497;-81
2022/01/17 01:32:02;;;;;;;;;;;;;;;4.95;57.28;100452.84;4398832;32;34793;-80
2022/01/17 01:34:38;;;;;;;;;;;;;;;5.16;57.01;100446.25;4399111;32;35265;-81
2022/01/17 01:37:06;;;;;;;;;;;;;;;5.02;56.98;100443.63;4399950;32;32643;-80
2022/01/17 01:39:34;;;;;;;;;;;;;;;5.16;56.51;100438.31;4399515;32;34845;-80
2022/01/17 01:42:03;;;;;;;;;;;;;;;5.01;56.80;100431.38;4399145;32;35959;-81
2022/01/17 01:44:30;;;;;;;;;;;;;;;4.81;57.57;100440.50;4399080;32;34807;-82
2022/01/17 01:46:58;;;;;;;;;;;;;;;5.01;57.02;100444.56;4386354;32;33136;-80
2022/01/17 01:49:26;;;;;;;;;;;;;;;5.17;56.47;100443.53;4398711;32;34596;-80
2022/01/17 01:51:53;;;;;;;;;;;;;;;5.11;56.60;100437.78;4398808;32;35770;-80
2022/01/17 01:54:21;;;;;;;;;;;;;;;5.35;55.88;100436.28;4412989;32;34398;-80
2022/01/17 01:56:49;;;;;;;;;;;;;;;5.14;56.05;100441.09;4398673;32;33985;-81
2022/01/17 01:59:20;;;;;;;;;;;;;;;5.01;56.38;100434.03;4385868;32;35867;-80
2022/01/17 02:01:48;;;;;;;;;;;;;;;5.12;56.22;100448.25;4412603;32;34991;-80
2022/01/17 02:04:16;;;;;;;;;;;;;;;4.75;57.13;100440.03;4412376;32;35143;-80
2022/01/17 02:06:43;;;;;;;;;;;;;;;4.94;56.84;100443.22;4386298;32;32219;-81
2022/01/17 02:09:11;;;;;;;;;;;;;;;4.94;56.69;100449.38;4386503;32;32009;-81
2022/01/17 02:11:39;;;;;;;;;;;;;;;5.18;56.42;100455.75;4399245;32;34821;-81
2022/01/17 02:14:06;;;;;;;;;;;;;;;5.12;56.52;100456.16;4398838;32;34896;-80
2022/01/17 02:16:34;;;;;;;;;;;;;;;4.93;57.15;100447.69;4398670;32;33871;-81
2022/01/17 02:19:01;;;;;;;;;;;;;;;5.31;56.25;100458.50;4399326;32;33899;-80
2022/01/17 02:21:46;;;;;;;;;;;;;;;4.82;57.63;100436.91;4398637;32;34969;-80
2022/01/17 02:24:16;;;;;;;;;;;;;;;4.85;57.61;100442.03;4398101;32;35185;-80
2022/01/17 02:26:44;;;;;;;;;;;;;;;4.66;58.23;100445.84;4386124;32;33258;-81
2022/01/17 02:29:11;;;;;;;;;;;;;;;4.80;57.99;100443.25;4412527;32;34070;-81
2022/01/17 02:31:41;;;;;;;;;;;;;;;4.82;57.86;100439.53;4398531;32;35959;-82
2022/01/17 02:34:09;;;;;;;;;;;;;;;4.94;57.63;100433.56;4399944;32;34091;-81
2022/01/17 02:36:37;;;;;;;;;;;;;;;5.11;57.08;100430.72;4414527;32;33918;-80
2022/01/17 02:39:05;;;;;;;;;;;;;;;4.83;57.66;100421.97;4400740;32;34928;-81
2022/01/17 02:41:33;;;;;;;;;;;;;;;4.68;58.20;100412.34;4400547;32;34669;-80
2022/01/17 02:44:02;;;;;;;;;;;;;;;4.89;57.68;100421.59;4400448;32;33770;-81
2022/01/17 02:46:30;;;;;;;;;;;;;;;4.77;57.75;100411.78;4400385;32;33325;-81
2022/01/17 02:48:58;;;;;;;;;;;;;;;4.80;57.89;100407.16;4414797;32;34382;-81
2022/01/17 02:51:26;;;;;;;;;;;;;;;4.80;57.93;100401.91;4387446;32;33676;-81
2022/01/17 02:53:54;;;;;;;;;;;;;;;4.52;58.45;100393.97;4400313;32;34711;-80
2022/01/17 02:56:22;;;;;;;;;;;;;;;4.60;58.33;100390.88;4400309;32;33544;-80
2022/01/17 02:58:50;;;;;;;;;;;;;;;4.53;58.55;100387.75;4387998;32;32611;-82
2022/01/17 03:01:19;;;;;;;;;;;;;;;4.56;58.19;100384.09;4375159;32;34375;-80
2022/01/17 03:03:47;;;;;;;;;;;;;;;4.48;58.38;100378.44;4375473;32;34158;-81
2022/01/17 03:06:15;;;;;;;;;;;;;;;4.52;58.31;100375.53;4387749;32;32724;-81
2022/01/17 03:08:43;;;;;;;;;;;;;;;4.34;58.76;100360.81;4387778;32;32628;-80
2022/01/17 03:11:11;;;;;;;;;;;;;;;4.56;58.13;100360.38;4399702;32;35031;-81
2022/01/17 03:13:39;;;;;;;;;;;;;;;4.61;57.86;100353.06;4400906;32;34792;-81
2022/01/17 03:16:10;;;;;;;;;;;;;;;4.45;58.20;100355.75;4388273;32;34142;-81
2022/01/17 03:18:39;;;;;;;;;;;;;;;4.77;57.38;100348.53;4414908;32;33565;-80
2022/01/17 03:21:07;;;;;;;;;;;;;;;4.62;57.47;100367.94;4399921;32;36083;-82
2022/01/17 03:23:36;;;;;;;;;;;;;;;4.86;56.86;100351.44;4414362;32;33767;-83
2022/01/17 03:26:03;;;;;;;;;;;;;;;4.64;57.54;100355.50;4400173;32;33079;-79
2022/01/17 03:28:31;;;;;;;;;;;;;;;4.79;56.87;100365.13;4388020;32;33860;-81
2022/01/17 03:30:59;;;;;;;;;;;;;;;4.98;56.47;100363.03;4400263;32;34523;-82
2022/01/17 03:33:27;;;;;;;;;;;;;;;4.56;57.52;100373.56;4387634;32;34806;-80
2022/01/17 03:35:55;;;;;;;;;;;;;;;4.65;57.40;100373.00;4387187;32;32275;-81
2022/01/17 03:38:23;;;;;;;;;;;;;;;4.81;56.38;100371.97;4399613;32;32070;-80
2022/01/17 03:40:51;;;;;;;;;;;;;;;4.68;57.19;100378.94;4399929;32;35075;-81
2022/01/17 03:43:20;;;;;;;;;;;;;;;5.08;55.84;100383.44;4399949;32;34765;-81
2022/01/17 03:45:49;;;;;;;;;;;;;;;4.96;56.21;100402.66;4400059;32;33423;-80
2022/01/17 03:48:17;;;;;;;;;;;;;;;5.37;55.15;100403.53;4400234;32;34674;-80
2022/01/17 03:50:45;;;;;;;;;;;;;;;5.20;55.33;100406.37;4399902;32;34794;-80
2022/01/17 03:53:12;;;;;;;;;;;;;;;5.13;55.74;100404.25;4400085;32;34096;-80
2022/01/17 03:55:40;;;;;;;;;;;;;;;5.26;55.40;100399.91;4387262;32;32200;-81
2022/01/17 03:58:07;;;;;;;;;;;;;;;5.55;54.66;100405.00;4399698;32;33506;-80
2022/01/17 04:00:36;;;;;;;;;;;;;;;5.60;54.39;100414.31;4387232;32;35220;-80
2022/01/17 04:03:04;;;;;;;;;;;;;;;5.16;55.80;100425.12;4400899;32;34394;-81
2022/01/17 04:05:32;;;;;;;;;;;;;;;5.34;55.27;100418.72;4400718;32;32806;-82
2022/01/17 04:07:59;;;;;;;;;;;;;;;5.34;55.23;100427.50;4414531;32;33944;-81
2022/01/17 04:10:27;;;;;;;;;;;;;;;5.15;55.65;100413.75;4388398;32;35495;-81
2022/01/17 04:13:00;;;;;;;;;;;;;;;5.62;54.80;100414.25;4400525;32;34820;-80
2022/01/17 04:15:29;;;;;;;;;;;;;;;5.68;54.50;100411.22;4387505;32;32610;-80
2022/01/17 04:17:56;;;;;;;;;;;;;;;5.52;54.98;100410.50;4399502;32;34078;-81
2022/01/17 04:20:28;;;;;;;;;;;;;;;5.43;55.28;100419.00;4399802;32;35731;-80
2022/01/17 04:22:57;;;;;;;;;;;;;;;5.50;54.85;100417.69;4386788;32;32859;-80
2022/01/17 04:25:25;;;;;;;;;;;;;;;5.81;54.40;100425.34;4386707;32;32792;-80
2022/01/17 04:27:53;;;;;;;;;;;;;;;5.63;54.64;100411.50;4399601;32;33526;-80
2022/01/17 04:30:20;;;;;;;;;;;;;;;5.66;54.57;100421.00;4400169;32;35082;-80
2022/01/17 04:32:48;;;;;;;;;;;;;;;5.96;53.76;100427.81;4399639;32;35483;-80
2022/01/17 04:35:24;;;;;;;;;;;;;;;6.15;53.31;100443.34;4369629;32;796825;-80
2022/01/17 04:37:56;;;;;;;;;;;;;;;5.95;54.02;100438.50;4388144;32;35404;-80
2022/01/17 04:40:24;;;;;;;;;;;;;;;6.26;52.98;100433.72;4400172;32;34940;-80
2022/01/17 04:42:54;;;;;;;;;;;;;;;6.03;53.47;100439.69;4387013;32;33760;-80
2022/01/17 04:45:22;;;;;;;;;;;;;;;6.05;53.85;100427.22;4400243;32;33392;-80
2022/01/17 04:47:52;;;;;;;;;;;;;;;6.29;52.94;100419.47;4399578;32;36487;-80
2022/01/17 04:50:21;;;;;;;;;;;;;;;6.10;53.62;100416.34;4399684;32;35083;-80
2022/01/17 04:52:49;;;;;;;;;;;;;;;5.88;54.15;100411.62;4399730;32;34377;-80
2022/01/17 04:55:17;;;;;;;;;;;;;;;5.73;54.43;100409.13;4399634;32;34134;-80
2022/01/17 04:57:45;;;;;;;;;;;;;;;6.04;53.67;100400.91;4399113;32;34675;-80
2022/01/17 05:00:14;;;;;;;;;;;;;;;5.98;53.93;100402.16;4413962;32;35737;-80
2022/01/17 05:02:42;;;;;;;;;;;;;;;5.68;54.75;100392.75;4399542;32;34056;-80
2022/01/17 05:05:10;;;;;;;;;;;;;;;5.74;54.58;100380.00;4399755;32;34108;-80
2022/01/17 05:07:39;;;;;;;;;;;;;;;6.21;53.28;100383.00;4386872;32;33008;-80
2022/01/17 05:10:16;;;;;;;;;;;;;;;6.20;53.20;100407.72;4386704;32;35310;-80
2022/01/17 05:12:44;;;;;;;;;;;;;;;5.83;54.03;100392.63;4398322;32;33950;-82
2022/01/17 05:15:24;;;;;;;;;;;;;;;5.94;54.07;100395.41;4399584;32;33870;-80
2022/01/17 05:18:01;;;;;;;;;;;;;;;6.31;53.18;100402.56;4396484;32;34784;-80
2022/01/17 05:20:28;;;;;;;;;;;;;;;6.17;53.15;100407.09;4398697;32;34153;-80
2022/01/17 05:22:56;;;;;;;;;;;;;;;6.13;53.46;100405.59;4385660;32;33911;-81
2022/01/17 05:25:23;;;;;;;;;;;;;;;5.90;54.19;100411.53;4399181;32;32678;-87
2022/01/17 05:27:53;;;;;;;;;;;;;;;5.63;55.08;100426.50;4375424;32;33959;-83
2022/01/17 05:30:22;;;;;;;;;;;;;;;5.48;55.30;100409.84;4399643;32;33242;-82
2022/01/17 05:32:50;;;;;;;;;;;;;;;5.99;54.20;100410.94;4412008;32;35482;-80
2022/01/17 05:35:17;;;;;;;;;;;;;;;5.48;55.46;100393.16;4379719;32;33013;-79
2022/01/17 05:37:46;;;;;;;;;;;;;;;5.32;56.14;100394.22;4399002;32;33397;-78
2022/01/17 05:40:14;;;;;;;;;;;;;;;5.37;56.02;100397.44;4399044;32;35113;-81
2022/01/17 05:42:41;;;;;;;;;;;;;;;5.58;55.56;100376.63;4413063;32;34144;-80
2022/01/17 05:45:09;;;;;;;;;;;;;;;5.47;55.67;100376.50;4399394;32;33730;-79
2022/01/17 05:47:36;;;;;;;;;;;;;;;5.67;55.38;100376.03;4399085;32;34344;-79
2022/01/17 05:50:04;;;;;;;;;;;;;;;5.49;55.79;100379.87;4398451;32;34974;-79
2022/01/17 05:52:32;;;;;;;;;;;;;;;5.45;55.80;100372.25;4412753;32;34438;-79
2022/01/17 05:55:00;;;;;;;;;;;;;;;5.39;56.15;100366.53;4412825;32;33599;-79
2022/01/17 05:57:27;;;;;;;;;;;;;;;5.61;55.54;100370.31;4398939;32;34461;-79
2022/01/17 05:59:55;;;;;;;;;;;;;;;5.53;55.61;100364.69;4398783;32;35932;-79
2022/01/17 06:02:22;;;;;;;;;;;;;;;5.65;54.96;100362.09;4374013;32;34902;-79
2022/01/17 06:04:50;;;;;;;;;;;;;;;5.77;54.87;100357.84;4398619;32;32583;-79
2022/01/17 06:07:18;;;;;;;;;;;;;;;5.56;54.91;100360.06;4409346;32;34573;-78
2022/01/17 06:09:45;;;;;;;;;;;;;;;5.90;54.28;100364.88;4398210;32;36041;-78
2022/01/17 06:12:12;;;;;;;;;;;;;;;5.87;54.29;100358.94;4399773;32;33002;-79
2022/01/17 06:14:40;;;;;;;;;;;;;;;5.42;55.50;100363.69;4400597;32;33292;-78
2022/01/17 06:17:07;;;;;;;;;;;;;;;5.94;54.37;100354.94;4400550;32;34178;-78
2022/01/17 06:19:35;;;;;;;;;;;;;;;5.76;54.87;100369.31;4400368;32;33739;-78
2022/01/17 06:22:03;;;;;;;;;;;;;;;5.80;54.52;100363.75;4387997;32;32864;-78
2022/01/17 06:24:31;;;;;;;;;;;;;;;5.79;54.68;100379.72;4400830;32;33841;-78
2022/01/17 06:26:59;;;;;;;;;;;;;;;5.63;55.13;100376.34;4400454;32;33619;-78
2022/01/17 06:29:26;;;;;;;;;;;;;;;5.76;54.75;100364.03;4387993;32;36186;-79
2022/01/17 06:31:53;;;;;;;;;;;;;;;5.78;54.63;100364.78;4414722;32;34035;-79
2022/01/17 06:34:33;;;;;;;;;;;;;;;5.67;54.95;100362.03;4390843;32;33653;-78
2022/01/17 06:37:00;;;;;;;;;;;;;;;5.49;55.40;100360.56;4400834;32;34221;-78
2022/01/17 06:39:28;;;;;;;;;;;;;;;5.61;55.14;100362.41;4400216;32;35037;-77
2022/01/17 06:41:56;;;;;;;;;;;;;;;5.46;55.17;100359.91;4375470;32;32430;-78
2022/01/17 06:44:23;;;;;;;;;;;;;;;5.73;54.80;100343.13;4400043;32;32694;-80
2022/01/17 06:46:50;;;;;;;;;;;;;;;5.48;55.30;100337.75;4400441;32;33362;-78
2022/01/17 06:49:18;;;;;;;;;;;;;;;5.64;54.78;100336.66;4400559;32;35429;-79
2022/01/17 06:51:45;;;;;;;;;;;;;;;5.31;55.68;100335.37;4414243;32;34479;-78
2022/01/17 06:54:13;;;;;;;;;;;;;;;5.54;55.31;100330.28;4387768;32;32740;-80
2022/01/17 06:56:44;;;;;;;;;;;;;;;5.68;54.95;100347.88;4400938;32;34393;-78
2022/01/17 06:59:11;;;;;;;;;;;;;;;5.27;55.99;100348.84;4400468;32;34831;-79
2022/01/17 07:01:39;;;;;;;;;;;;;;;5.37;55.83;100347.31;4414436;32;34213;-78
2022/01/17 07:04:08;;;;;;;;;;;;;;;5.45;55.64;100347.66;4414405;32;34041;-79
2022/01/17 07:06:37;;;;;;;;;;;;;;;5.28;56.18;100342.63;4387369;32;32990;-79
2022/01/17 07:09:05;;;;;;;;;;;;;;;5.68;55.47;100342.59;4387634;32;33351;-79
2022/01/17 07:11:38;;;;;;;;;;;;;;;5.66;55.23;100337.41;4400554;32;34651;-78
2022/01/17 07:14:06;;;;;;;;;;;;;;;5.58;55.43;100318.59;4401300;32;33258;-77
2022/01/17 07:16:33;;;;;;;;;;;;;;;5.77;55.34;100318.22;4399374;32;34953;-78
2022/01/17 07:19:01;;;;;;;;;;;;;;;5.77;55.13;100324.34;4399439;32;35070;-78
2022/01/17 07:21:28;;;;;;;;;;;;;;;5.90;54.93;100317.34;4387351;32;33806;-78
2022/01/17 07:23:56;;;;;;;;;;;;;;;5.67;55.82;100319.78;4413427;32;32998;-78
2022/01/17 07:26:23;;;;;;;;;;;;;;;5.52;56.13;100326.06;4399563;32;33895;-79
2022/01/17 07:28:51;;;;;;;;;;;;;;;5.83;55.22;100326.62;4400153;32;35271;-78
2022/01/17 07:31:19;;;;;;;;;;;;;;;5.76;55.39;100349.06;4387499;32;32589;-79
2022/01/17 07:33:46;;;;;;;;;;;;;;;5.65;55.55;100354.19;4387465;32;34064;-78
2022/01/17 07:36:18;;;;;;;;;;;;;;;5.72;55.42;100362.53;4397435;32;33861;-78
2022/01/17 07:38:46;;;;;;;;;;;;;;;5.94;55.04;100369.00;4400629;32;35121;-78
2022/01/17 07:41:14;;;;;;;;;;;;;;;5.77;55.52;100384.22;4411640;32;34111;-79
2022/01/17 07:43:57;;;;;;;;;;;;;;;6.11;54.73;100429.47;4401925;32;33411;-79
2022/01/17 07:46:31;;;;;;;;;;;;;;;5.53;56.05;100438.59;4399871;32;34589;-78
2022/01/17 07:51:37;;;;;;;;;;;;;;;5.82;55.68;100435.81;4400727;32;34353;-79
2022/01/17 07:54:05;;;;;;;;;;;;;;;5.74;55.92;100416.09;4400273;32;32640;-78
2022/01/17 07:56:33;;;;;;;;;;;;;;;5.85;55.49;100393.37;4400032;32;33421;-79
2022/01/17 07:59:01;;;;;;;;;;;;;;;5.89;55.45;100394.00;4413882;32;36211;-79
2022/01/17 08:01:28;;;;;;;;;;;;;;;5.90;55.51;100379.84;4399078;32;34414;-79
2022/01/17 08:03:56;;;;;;;;;;;;;;;5.87;55.65;100364.22;4412897;32;33036;-79
2022/01/17 08:06:23;;;;;;;;;;;;;;;5.82;55.70;100366.31;4398152;32;34274;-78
2022/01/17 08:08:51;;;;;;;;;;;;;;;6.09;55.46;100368.00;4412418;32;34708;-78
2022/01/17 08:11:18;;;;;;;;;;;;;;;6.01;55.37;100369.44;4413335;32;34693;-78
2022/01/17 08:13:46;;;;;;;;;;;;;;;5.72;56.28;100368.69;4412023;32;33510;-78
2022/01/17 08:16:15;;;;;;;;;;;;;;;5.88;55.69;100348.25;4399183;32;34861;-77
2022/01/17 08:18:42;;;;;;;;;;;;;;;5.81;56.16;100335.56;4399582;32;34301;-77
2022/01/17 08:21:10;;;;;;;;;;;;;;;5.98;55.75;100328.22;4413420;32;36017;-78
2022/01/17 08:23:37;;;;;;;;;;;;;;;6.15;55.19;100314.72;4374235;32;32392;-77
2022/01/17 08:26:05;;;;;;;;;;;;;;;6.09;55.25;100298.44;4387117;32;33760;-77
2022/01/17 08:28:32;;;;;;;;;;;;;;;6.41;54.50;100297.94;4414035;32;36163;-78
2022/01/17 08:30:59;;;;;;;;;;;;;;;6.37;54.64;100300.91;4398546;32;35611;-77
2022/01/17 08:33:47;;;;;;;;;;;;;;;6.52;54.23;100294.56;4399013;32;35653;-78
2022/01/17 08:36:18;;;;;;;;;;;;;;;6.54;54.01;100287.38;4399376;32;34979;-77
2022/01/17 08:38:47;;;;;;;;;;;;;;;6.35;54.52;100308.91;4387390;32;36062;-77
2022/01/17 08:41:16;;;;;;;;;;;;;;;6.65;54.10;100290.09;4399543;32;34804;-77
2022/01/17 08:43:44;;;;;;;;;;;;;;;6.63;53.80;100316.62;4399523;32;32626;-78
2022/01/17 08:46:12;;;;;;;;;;;;;;;6.30;54.62;100342.75;4413253;32;35117;-77
2022/01/17 08:48:39;;;;;;;;;;;;;;;6.38;54.68;100340.44;4399025;32;35056;-77
2022/01/17 08:51:07;;;;;;;;;;;;;;;6.38;54.68;100356.28;4399662;32;34942;-77
2022/01/17 08:53:35;;;;;;;;;;;;;;;6.52;54.11;100336.84;4399240;32;33221;-78
2022/01/17 08:56:03;;;;;;;;;;;;;;;6.46;54.54;100337.25;4399639;32;34285;-77
2022/01/17 08:58:30;;;;;;;;;;;;;;;6.25;55.10;100330.81;4399362;32;36190;-77
2022/01/17 09:00:58;;;;;;;;;;;;;;;6.25;55.39;100333.44;4399161;32;35223;-79
2022/01/17 09:03:26;;;;;;;;;;;;;;;6.04;56.15;100297.91;4386662;32;32604;-78
2022/01/17 09:05:53;;;;;;;;;;;;;;;5.94;57.06;100279.22;4374666;32;32487;-76
2022/01/17 09:08:22;;;;;;;;;;;;;;;5.77;57.72;100311.13;4413363;32;35013;-77
2022/01/17 09:10:49;;;;;;;;;;;;;;;5.90;57.49;100309.44;4399281;32;34424;-78
2022/01/17 09:13:18;;;;;;;;;;;;;;;6.08;57.17;100288.84;4397871;32;33452;-77
2022/01/17 09:15:45;;;;;;;;;;;;;;;5.96;57.02;100273.84;4386512;32;34296;-77
2022/01/17 09:18:14;;;;;;;;;;;;;;;5.98;57.03;100285.13;4386371;32;34502;-77
2022/01/17 09:20:42;;;;;;;;;;;;;;;6.00;56.69;100285.88;4399337;32;34000;-77
2022/01/17 09:23:09;;;;;;;;;;;;;;;5.94;56.79;100297.69;4399099;32;33496;-79
2022/01/17 09:25:37;;;;;;;;;;;;;;;5.96;56.47;100311.63;4374307;32;32700;-77
2022/01/17 09:28:04;;;;;;;;;;;;;;;5.95;56.55;100296.75;4398844;32;35096;-77
2022/01/17 09:30:32;;;;;;;;;;;;;;;6.22;55.72;100283.44;4386684;32;34998;-77
2022/01/17 09:33:00;;;;;;;;;;;;;;;6.42;55.01;100273.19;4398988;32;33855;-78
2022/01/17 09:35:27;;;;;;;;;;;;;;;6.41;54.97;100281.22;4386315;32;31779;-79
2022/01/17 09:37:55;;;;;;;;;;;;;;;6.25;55.33;100277.97;4386620;32;35811;-79
2022/01/17 09:40:22;;;;;;;;;;;;;;;6.50;54.97;100251.50;4398538;32;34776;-79
2022/01/17 09:42:50;;;;;;;;;;;;;;;6.34;55.25;100248.28;4401320;32;33944;-79
2022/01/17 09:45:19;;;;;;;;;;;;;;;6.34;54.99;100246.47;4391373;32;34601;-79
2022/01/17 09:47:46;;;;;;;;;;;;;;;6.37;55.08;100243.63;4391359;32;35708;-79
2022/01/17 09:50:18;;;;;;;;;;;;;;;6.42;54.80;100235.38;4389781;32;32747;-80
2022/01/17 09:52:46;;;;;;;;;;;;;;;6.26;55.24;100217.06;4404466;32;33009;-78
2022/01/17 09:55:15;;;;;;;;;;;;;;;6.50;54.46;100202.16;4391844;32;32666;-79
2022/01/17 09:58:08;;;;;;;;;;;;;;;6.34;54.74;100196.25;4418115;32;35384;-78
2022/01/17 10:00:37;;;;;;;;;;;;;;;6.38;54.50;100202.16;4414429;32;34201;-79
2022/01/17 10:03:10;;;;;;;;;;;;;;;6.65;53.90;100201.06;4417487;32;33561;-79
2022/01/17 10:05:38;;;;;;;;;;;;;;;6.47;54.11;100205.03;4403799;32;33746;-78
2022/01/17 10:08:07;;;;;;;;;;;;;;;6.57;53.88;100195.47;4378680;32;33635;-79
2022/01/17 10:10:35;;;;;;;;;;;;;;;6.36;54.60;100198.81;4403506;32;33529;-79
2022/01/17 10:13:05;;;;;;;;;;;;;;;6.63;53.76;100196.84;4403613;32;33127;-78
2022/01/17 10:15:45;;;;;;;;;;;;;;;7.02;52.98;100193.94;4403265;32;33343;-79
2022/01/17 10:18:22;;;;;;;;;;;;;;;6.64;53.98;100203.81;4403381;32;35890;-79
2022/01/17 10:20:58;;;;;;;;;;;;;;;6.53;53.98;100195.81;4381585;32;34805;-79
2022/01/17 10:23:44;;;;;;;;;;;;;;;6.65;53.46;100177.28;4390723;32;32995;-79
2022/01/17 10:26:58;;;;;;;;;;;;;;;6.81;53.39;100166.44;4403622;32;32472;-79
2022/01/17 10:34:53;;;;;;;;;;;;;;;7.10;52.63;100168.59;4417519;32;35277;-79
2022/01/17 10:34:53;;;;;;;;;;;;;;;6.61;53.53;100154.66;4406579;32;33879;-79
2022/01/17 10:37:23;;;;;;;;;;;;;;;7.05;52.80;100161.97;4391233;32;34642;-80
2022/01/17 10:39:54;;;;;;;;;;;;;;;7.02;52.52;100147.19;4403267;32;35212;-79
2022/01/17 10:42:22;;;;;;;;;;;;;;;6.97;52.79;100153.75;4408256;32;32925;-80
2022/01/17 10:44:50;;;;;;;;;;;;;;;7.07;52.70;100149.50;4417583;32;33410;-80
2022/01/17 10:47:21;;;;;;;;;;;;;;;6.89;53.32;100124.41;4403172;32;34756;-80
2022/01/17 10:49:55;;;;;;;;;;;;;;;6.74;53.79;100144.03;4403611;32;35363;-79
2022/01/17 10:52:42;;;;;;;;;;;;;;;7.00;53.60;100127.09;4402955;32;33086;-80
2022/01/17 10:55:14;;;;;;;;;;;;;;;6.99;53.73;100146.56;4400892;32;33394;-80
2022/01/17 10:57:45;;;;;;;;;;;;;;;6.89;53.55;100129.69;4400035;32;33362;-80
2022/01/17 11:00:15;;;;;;;;;;;;;;;7.14;54.03;100127.75;4400319;32;35737;-79
2022/01/17 11:02:44;;;;;;;;;;;;;;;6.58;54.75;100096.72;4400233;32;35092;-82
2022/01/17 11:05:21;;;;;;;;;;;;;;;6.75;54.45;100103.41;4401453;32;33069;-80
2022/01/17 11:07:51;;;;;;;;;;;;;;;7.17;53.34;100093.12;4399923;32;34428;-80
2022/01/17 11:10:23;;;;;;;;;;;;;;;7.21;53.43;100084.00;4400924;32;34933;-79
2022/01/17 11:12:51;;;;;;;;;;;;;;;7.09;53.74;100086.72;4400086;32;34191;-80
2022/01/17 11:15:19;;;;;;;;;;;;;;;7.10;53.79;100075.19;4400695;32;33024;-79
2022/01/17 11:17:52;;;;;;;;;;;;;;;7.01;53.75;100073.22;4400233;32;34287;-80
2022/01/17 11:20:27;;;;;;;;;;;;;;;7.07;53.81;100080.72;4400434;32;34526;-79
2022/01/17 11:22:56;;;;;;;;;;;;;;;7.27;53.22;100056.22;4400000;32;34384;-80
2022/01/17 11:25:25;;;;;;;;;;;;;;;7.19;53.16;100050.69;4400611;32;33066;-80
2022/01/17 11:27:52;;;;;;;;;;;;;;;7.26;53.04;100036.03;4387279;32;34446;-79
2022/01/17 11:30:21;;;;;;;;;;;;;;;7.31;52.65;100023.28;4413627;32;35435;-79
2022/01/17 11:32:50;;;;;;;;;;;;;;;7.25;53.03;100037.81;4400386;32;35119;-80
2022/01/17 11:35:19;;;;;;;;;;;;;;;7.24;52.66;100061.75;4390427;32;31371;-80
2022/01/17 11:37:47;;;;;;;;;;;;;;;7.37;52.34;100028.94;4387887;32;33700;-80
2022/01/17 11:40:15;;;;;;;;;;;;;;;7.39;52.10;100050.00;4387438;32;33556;-79
2022/01/17 11:42:46;;;;;;;;;;;;;;;7.72;51.10;100056.16;4414311;32;34413;-80
2022/01/17 11:45:23;;;;;;;;;;;;;;;7.42;51.74;100055.91;4399715;32;32059;-80
2022/01/17 11:47:53;;;;;;;;;;;;;;;7.50;51.13;100050.84;4399829;32;33688;-80
2022/01/17 11:50:27;;;;;;;;;;;;;;;7.44;51.08;100045.19;4387316;32;33987;-79
2022/01/17 11:52:55;;;;;;;;;;;;;;;7.44;51.55;100037.25;4399773;32;35046;-79
2022/01/17 11:55:42;;;;;;;;;;;;;;;7.58;51.25;100050.25;4400580;32;32370;-80
2022/01/17 11:58:15;;;;;;;;;;;;;;;7.75;50.71;100032.06;4413930;32;33509;-79
2022/01/17 12:00:44;;;;;;;;;;;;;;;7.72;50.27;100032.31;4414300;32;35278;-79
2022/01/17 12:03:15;;;;;;;;;;;;;;;7.55;51.21;100024.03;4400490;32;33840;-78
2022/01/17 12:05:43;;;;;;;;;;;;;;;7.46;51.44;100025.56;4399069;32;31478;-80
2022/01/17 12:08:11;;;;;;;;;;;;;;;7.41;52.01;100037.47;4414079;32;34182;-79
2022/01/17 12:10:47;;;;;;;;;;;;;;;7.64;51.53;99989.72;4413694;32;36063;-80
2022/01/17 12:13:16;;;;;;;;;;;;;;;7.61;51.70;99997.91;4400223;32;35339;-79
2022/01/17 12:16:06;;;;;;;;;;;;;;;7.39;52.39;100005.84;4413913;32;33191;-79
2022/01/17 12:18:35;;;;;;;;;;;;;;;7.63;51.93;99997.78;4414135;32;34325;-78
2022/01/17 12:21:29;;;;;;;;;;;;;;;7.58;51.59;100021.13;4399446;32;35079;-79
2022/01/17 12:24:18;;;;;;;;;;;;;;;7.29;52.23;100015.44;4411547;32;35079;-79
2022/01/17 12:27:01;;;;;;;;;;;;;;;7.29;52.03;99996.09;4414135;32;32496;-79
2022/01/17 12:29:39;;;;;;;;;;;;;;;7.53;51.78;99973.84;4386965;32;33138;-79
2022/01/17 12:32:07;;;;;;;;;;;;;;;7.49;51.62;99959.19;4383081;32;35382;-80
2022/01/17 12:34:41;;;;;;;;;;;;;;;7.40;52.03;99959.03;4387039;32;34009;-80
2022/01/17 12:37:27;;;;;;;;;;;;;;;7.26;52.14;99940.78;4387583;32;31504;-79
2022/01/17 12:40:13;;;;;;;;;;;;;;;7.20;52.45;99936.81;4412570;32;33680;-79
2022/01/17 12:42:48;;;;;;;;;;;;;;;7.02;53.28;99951.47;4399786;32;34948;-77
2022/01/17 12:45:23;;;;;;;;;;;;;;;7.15;52.92;99949.53;4381086;32;33150;-80
2022/01/17 12:47:51;;;;;;;;;;;;;;;7.43;52.20;99949.06;4386992;32;33915;-79
2022/01/17 12:50:19;;;;;;;;;;;;;;;7.13;52.95;99959.41;4387067;32;32782;-79
2022/01/17 12:52:49;;;;;;;;;;;;;;;7.39;52.58;99966.16;4399213;32;33649;-78
2022/01/17 12:55:17;;;;;;;;;;;;;;;7.56;52.17;99955.06;4414013;32;34142;-79
2022/01/17 12:57:45;;;;;;;;;;;;;;;7.37;52.44;99956.66;4399367;32;33901;-79
2022/01/17 13:00:17;;;;;;;;;;;;;;;7.37;52.26;99956.66;4387083;32;33894;-80
2022/01/17 13:02:45;;;;;;;;;;;;;;;7.41;51.90;99947.50;4399279;32;34249;-79
2022/01/17 13:05:13;;;;;;;;;;;;;;;7.29;52.02;99970.44;4399681;32;34221;-79
2022/01/17 13:07:41;;;;;;;;;;;;;;;7.46;51.56;99940.03;4386756;32;31759;-78
2022/01/17 13:10:10;;;;;;;;;;;;;;;7.17;52.48;99931.72;4413607;32;33323;-80
2022/01/17 13:12:42;;;;;;;;;;;;;;;7.21;52.04;99925.25;4386987;32;36081;-79
2022/01/17 13:15:10;;;;;;;;;;;;;;;7.37;51.83;99930.19;4399822;32;34752;-83
2022/01/17 13:17:38;;;;;;;;;;;;;;;7.29;51.88;99956.41;4398699;32;33220;-79
2022/01/17 13:20:06;;;;;;;;;;;;;;;7.08;52.41;99928.97;4399484;32;34173;-79
2022/01/17 13:22:40;;;;;;;;;;;;;;;7.20;52.24;99947.37;4399551;32;34762;-78